Time;durP1;ratioP1;P1;durP2;ratioP2;P2;SDS_P1;SDS_P2;PMS_P1;PMS_P2;Temp;Humidity;BMP_temperature;BMP_pressure;BME280_temperature;BME280_humidity;BME280_pressure;Samples;Min_cycle;Max_cycle;Signal;HPM_P1;HPM_P2
2023/07/18 00:00:25;;;;;;;;;;;24.70;65.50;;;;;;5085365;28;19909;-38
2023/07/18 00:02:51;;;;;;;;;;;24.70;65.50;;;;;;5083406;28;19935;-38
2023/07/18 00:05:17;;;;;;;;;;;24.60;65.60;;;;;;5084098;28;20443;-38
2023/07/18 00:07:44;;;;;;;;;;;24.70;65.80;;;;;;5083192;28;19950;-38
2023/07/18 00:10:10;;;;;;;;;;;24.70;65.90;;;;;;5082453;28;19958;-38
2023/07/18 00:12:36;;;;;;;;;;;24.70;66.10;;;;;;5066503;28;20451;-38
2023/07/18 00:15:03;;;;;;;;;;;24.70;66.30;;;;;;5085069;28;19912;-38
2023/07/18 00:17:31;;;;;;;;;;;24.70;66.50;;;;;;5085162;28;19904;-38
2023/07/18 00:19:58;;;;;;;;;;;24.70;66.70;;;;;;5084889;28;19956;-39
2023/07/18 00:22:24;;;;;;;;;;;24.70;66.90;;;;;;5085160;28;19912;-38
2023/07/18 00:24:50;;;;;;;;;;;24.80;67.20;;;;;;5083561;28;19932;-38
2023/07/18 00:27:16;;;;;;;;;;;24.80;67.50;;;;;;5084801;28;19963;-38
2023/07/18 00:29:42;;;;;;;;;;;24.80;67.60;;;;;;5084584;28;19912;-38
2023/07/18 00:32:08;;;;;;;;;;;24.80;67.90;;;;;;5065609;28;20002;-38
2023/07/18 00:34:34;;;;;;;;;;;24.80;67.90;;;;;;5084830;28;19908;-38
2023/07/18 00:36:59;;;;;;;;;;;24.80;67.80;;;;;;5081427;28;19908;-38
2023/07/18 00:39:25;;;;;;;;;;;24.80;67.90;;;;;;5084794;28;19908;-38
2023/07/18 00:41:52;;;;;;;;;;;24.80;68.00;;;;;;5084220;28;19915;-38
2023/07/18 00:44:18;;;;;;;;;;;24.80;68.00;;;;;;5084480;28;19955;-38
2023/07/18 00:46:44;;;;;;;;;;;24.80;68.10;;;;;;5084249;28;19912;-38
2023/07/18 00:49:10;;;;;;;;;;;24.90;68.20;;;;;;5077418;28;19912;-38
2023/07/18 00:51:35;;;;;;;;;;;24.90;68.30;;;;;;5084850;28;19912;-38
2023/07/18 00:54:21;;;;;;;;;;;24.90;68.40;;;;;;5036171;28;19917;-38
2023/07/18 00:56:47;;;;;;;;;;;24.90;68.40;;;;;;5039885;28;19913;-38
2023/07/18 00:59:14;;;;;;;;;;;24.90;68.70;;;;;;5026064;28;19924;-38
2023/07/18 01:01:40;;;;;;;;;;;24.90;68.70;;;;;;5038586;28;19909;-38
2023/07/18 01:04:08;;;;;;;;;;;24.90;68.80;;;;;;5039214;28;19917;-38
2023/07/18 01:06:35;;;;;;;;;;;24.90;68.80;;;;;;5038884;28;19909;-38
2023/07/18 01:09:01;;;;;;;;;;;25.00;69.00;;;;;;5023240;28;19928;-38
2023/07/18 01:11:26;;;;;;;;;;;24.90;69.10;;;;;;5026567;28;19909;-38
2023/07/18 01:13:52;;;;;;;;;;;25.00;69.00;;;;;;5022645;28;19939;-38
2023/07/18 01:16:18;;;;;;;;;;;25.00;69.20;;;;;;5024295;28;20028;-39
2023/07/18 01:18:44;;;;;;;;;;;25.00;69.10;;;;;;5026506;28;19916;-39
2023/07/18 01:21:12;;;;;;;;;;;25.00;69.20;;;;;;5026045;28;19913;-38
2023/07/18 01:23:38;;;;;;;;;;;25.00;69.20;;;;;;5015741;28;19924;-37
2023/07/18 01:26:04;;;;;;;;;;;25.00;69.10;;;;;;5027162;28;19917;-38
2023/07/18 01:28:30;;;;;;;;;;;25.00;69.10;;;;;;5030860;28;20007;-38
2023/07/18 01:30:56;;;;;;;;;;;25.00;69.90;;;;;;5036517;28;19928;-39
2023/07/18 01:33:22;;;;;;;;;;;25.00;69.00;;;;;;5069260;28;19969;-39
2023/07/18 01:35:47;;;;;;;;;;;25.00;69.00;;;;;;5069875;28;19912;-38
2023/07/18 01:38:13;;;;;;;;;;;25.00;69.00;;;;;;5080664;28;19919;-38
2023/07/18 01:40:39;;;;;;;;;;;25.00;69.10;;;;;;5083069;28;19908;-38
2023/07/18 01:43:05;;;;;;;;;;;25.00;69.10;;;;;;5083261;28;19974;-38
2023/07/18 01:45:31;;;;;;;;;;;25.00;69.20;;;;;;5083080;28;19912;-38
2023/07/18 01:47:57;;;;;;;;;;;25.00;69.20;;;;;;5082839;28;19927;-38
2023/07/18 01:50:23;;;;;;;;;;;25.00;69.30;;;;;;5081945;28;19920;-37
2023/07/18 01:52:49;;;;;;;;;;;25.00;69.40;;;;;;5081936;28;20396;-37
2023/07/18 01:55:15;;;;;;;;;;;25.00;69.40;;;;;;5083322;28;19966;-38
2023/07/18 01:57:41;;;;;;;;;;;25.00;69.50;;;;;;5082770;28;19912;-38
2023/07/18 02:00:28;;;;;;;;;;;25.00;69.50;;;;;;5083401;28;19915;-38
2023/07/18 02:02:53;;;;;;;;;;;25.00;69.60;;;;;;5082720;28;19921;-38
2023/07/18 02:05:20;;;;;;;;;;;25.00;69.60;;;;;;5082622;28;19919;-38
2023/07/18 02:07:46;;;;;;;;;;;25.00;69.50;;;;;;5080301;28;19912;-38
2023/07/18 02:10:13;;;;;;;;;;;25.00;69.50;;;;;;5078621;28;19976;-38
2023/07/18 02:12:39;;;;;;;;;;;25.00;69.30;;;;;;5083077;28;19904;-38
2023/07/18 02:15:05;;;;;;;;;;;25.00;69.30;;;;;;5082504;28;20006;-38
2023/07/18 02:17:32;;;;;;;;;;;25.00;69.30;;;;;;5082193;28;20402;-38
2023/07/18 02:19:58;;;;;;;;;;;25.00;69.30;;;;;;5082824;28;19923;-38
2023/07/18 02:22:25;;;;;;;;;;;25.00;69.30;;;;;;5082921;28;20438;-38
2023/07/18 02:24:51;;;;;;;;;;;25.00;69.30;;;;;;5082583;28;19915;-38
2023/07/18 02:27:19;;;;;;;;;;;25.00;69.50;;;;;;5082736;28;19916;-38
2023/07/18 02:29:46;;;;;;;;;;;25.00;69.50;;;;;;5080966;28;20319;-38
2023/07/18 02:32:13;;;;;;;;;;;25.00;69.60;;;;;;5083068;28;19908;-38
2023/07/18 02:34:39;;;;;;;;;;;25.00;69.70;;;;;;5082128;28;19904;-38
2023/07/18 02:37:05;;;;;;;;;;;25.00;69.80;;;;;;5081256;28;19913;-38
2023/07/18 02:39:32;;;;;;;;;;;25.00;69.80;;;;;;5082657;28;19966;-38
2023/07/18 02:41:58;;;;;;;;;;;25.00;69.80;;;;;;5082328;28;20361;-38
2023/07/18 02:44:24;;;;;;;;;;;25.00;69.90;;;;;;5082374;28;19908;-38
2023/07/18 02:46:50;;;;;;;;;;;25.00;69.90;;;;;;5082372;28;19912;-38
2023/07/18 02:49:16;;;;;;;;;;;25.00;69.80;;;;;;5082206;28;19912;-38
2023/07/18 02:52:02;;;;;;;;;;;25.00;69.60;;;;;;5082544;28;19974;-38
2023/07/18 02:54:29;;;;;;;;;;;25.00;69.60;;;;;;5039374;28;19913;-38
2023/07/18 02:56:56;;;;;;;;;;;25.00;69.40;;;;;;5036513;28;19920;-38
2023/07/18 02:59:22;;;;;;;;;;;25.00;69.50;;;;;;5036343;28;20384;-38
2023/07/18 03:01:50;;;;;;;;;;;25.00;69.50;;;;;;5039721;28;19909;-38
2023/07/18 03:04:17;;;;;;;;;;;25.00;69.50;;;;;;5038136;28;20111;-38
2023/07/18 03:06:45;;;;;;;;;;;25.00;69.40;;;;;;5031355;28;19916;-38
2023/07/18 03:09:11;;;;;;;;;;;25.00;69.40;;;;;;5025550;28;19921;-38
2023/07/18 03:11:36;;;;;;;;;;;25.00;69.60;;;;;;5025373;28;20015;-38
2023/07/18 03:14:03;;;;;;;;;;;25.00;69.80;;;;;;5027713;28;19909;-38
2023/07/18 03:16:29;;;;;;;;;;;25.00;70.00;;;;;;5024531;28;19913;-38
2023/07/18 03:18:58;;;;;;;;;;;25.00;70.00;;;;;;5022368;28;19920;-38
2023/07/18 03:21:24;;;;;;;;;;;25.00;70.00;;;;;;5023815;28;19964;-38
2023/07/18 03:23:50;;;;;;;;;;;25.00;70.10;;;;;;5022703;28;19924;-37
2023/07/18 03:26:16;;;;;;;;;;;25.00;70.00;;;;;;5023931;28;19913;-38
2023/07/18 03:28:42;;;;;;;;;;;25.00;70.10;;;;;;5026392;28;19957;-38
2023/07/18 03:31:08;;;;;;;;;;;24.90;70.00;;;;;;5036968;28;19929;-38
2023/07/18 03:33:34;;;;;;;;;;;24.90;69.90;;;;;;5064076;28;19972;-38
2023/07/18 03:36:01;;;;;;;;;;;24.90;69.80;;;;;;5067454;28;19952;-38
2023/07/18 03:38:27;;;;;;;;;;;24.90;69.70;;;;;;5081188;28;20466;-38
2023/07/18 03:40:53;;;;;;;;;;;24.90;69.60;;;;;;5081584;28;19908;-38
2023/07/18 03:43:19;;;;;;;;;;;24.90;69.50;;;;;;5081878;28;19928;-38
2023/07/18 03:45:45;;;;;;;;;;;24.90;69.50;;;;;;5081571;28;19913;-38
2023/07/18 03:48:11;;;;;;;;;;;24.90;70.10;;;;;;5081820;28;19961;-39
2023/07/18 03:50:38;;;;;;;;;;;24.90;69.30;;;;;;5078267;28;20025;-38
2023/07/18 03:53:03;;;;;;;;;;;24.90;69.20;;;;;;5081721;28;19975;-38
2023/07/18 03:55:29;;;;;;;;;;;24.90;69.50;;;;;;5081932;28;19953;-38
2023/07/18 03:57:55;;;;;;;;;;;24.90;69.80;;;;;;5080792;28;20288;-38
2023/07/18 04:00:21;;;;;;;;;;;24.90;70.00;;;;;;5081265;28;19912;-38
2023/07/18 04:02:47;;;;;;;;;;;24.90;70.20;;;;;;5079610;28;19974;-38
2023/07/18 04:05:14;;;;;;;;;;;24.90;70.20;;;;;;5081747;28;19913;-38
2023/07/18 04:07:41;;;;;;;;;;;24.80;70.20;;;;;;5084011;28;19951;-37
2023/07/18 04:10:07;;;;;;;;;;;24.80;70.20;;;;;;5084704;28;19924;-38
2023/07/18 04:12:32;;;;;;;;;;;24.80;70.20;;;;;;5085211;28;19912;-38
2023/07/18 04:14:58;;;;;;;;;;;24.80;70.20;;;;;;5085036;28;19919;-38
2023/07/18 04:17:25;;;;;;;;;;;24.80;69.90;;;;;;5085293;28;19995;-38
2023/07/18 04:19:52;;;;;;;;;;;24.80;69.80;;;;;;5078963;28;19933;-38
2023/07/18 04:22:18;;;;;;;;;;;24.80;69.70;;;;;;5085370;28;19912;-38
2023/07/18 04:24:43;;;;;;;;;;;24.80;69.70;;;;;;5084727;28;19905;-38
2023/07/18 04:27:09;;;;;;;;;;;24.80;69.60;;;;;;5085071;28;20276;-38
2023/07/18 04:29:35;;;;;;;;;;;24.80;69.60;;;;;;5084783;28;19916;-38
2023/07/18 04:32:01;;;;;;;;;;;24.80;69.60;;;;;;5083918;28;19917;-39
2023/07/18 04:34:27;;;;;;;;;;;24.80;69.60;;;;;;5085177;28;19904;-38
2023/07/18 04:36:53;;;;;;;;;;;24.80;69.60;;;;;;5076059;28;19912;-39
2023/07/18 04:39:19;;;;;;;;;;;24.80;69.70;;;;;;5084585;28;19971;-38
2023/07/18 04:41:45;;;;;;;;;;;24.80;69.90;;;;;;5084504;28;20308;-38
2023/07/18 04:44:10;;;;;;;;;;;24.80;70.00;;;;;;5077459;28;19920;-39
2023/07/18 04:46:36;;;;;;;;;;;24.70;70.00;;;;;;5084119;28;19983;-38
2023/07/18 04:49:02;;;;;;;;;;;24.70;70.00;;;;;;5083859;28;19912;-38
2023/07/18 04:51:28;;;;;;;;;;;24.70;69.90;;;;;;5084361;28;19904;-38
2023/07/18 04:53:54;;;;;;;;;;;24.70;69.90;;;;;;5081916;28;21128;-38
2023/07/18 04:56:20;;;;;;;;;;;24.70;69.90;;;;;;5078673;28;19909;-39
2023/07/18 04:58:46;;;;;;;;;;;24.70;70.00;;;;;;5083655;28;20081;-38
2023/07/18 05:01:12;;;;;;;;;;;24.70;70.00;;;;;;5084236;28;20004;-38
2023/07/18 05:03:38;;;;;;;;;;;24.70;69.90;;;;;;5084266;28;19919;-37
2023/07/18 05:06:04;;;;;;;;;;;24.70;69.90;;;;;;5075890;28;20042;-38
2023/07/18 05:08:30;;;;;;;;;;;24.70;69.90;;;;;;5080238;28;19931;-38
2023/07/18 05:11:00;;;;;;;;;;;24.60;69.80;;;;;;5083817;28;19951;-38
2023/07/18 05:13:26;;;;;;;;;;;24.60;69.70;;;;;;5084191;28;19919;-38
2023/07/18 05:15:52;;;;;;;;;;;24.60;69.80;;;;;;5083676;28;19916;-39
2023/07/18 05:18:18;;;;;;;;;;;24.60;69.70;;;;;;5082957;28;19971;-39
2023/07/18 05:20:43;;;;;;;;;;;24.60;69.70;;;;;;5084051;28;19912;-39
2023/07/18 05:23:09;;;;;;;;;;;24.60;69.70;;;;;;5082647;28;19950;-38
2023/07/18 05:25:36;;;;;;;;;;;24.60;69.90;;;;;;5083513;28;19958;-39
2023/07/18 05:28:02;;;;;;;;;;;24.60;70.00;;;;;;5081524;28;19947;-38
2023/07/18 05:30:28;;;;;;;;;;;24.60;70.00;;;;;;5083454;28;20348;-38
2023/07/18 05:32:54;;;;;;;;;;;24.60;70.10;;;;;;5065436;28;19908;-39
2023/07/18 05:35:20;;;;;;;;;;;24.60;70.10;;;;;;5083680;28;19918;-38
2023/07/18 05:37:46;;;;;;;;;;;24.60;70.20;;;;;;5076545;28;19935;-38
2023/07/18 05:40:12;;;;;;;;;;;24.60;70.20;;;;;;5069533;28;19982;-38
2023/07/18 05:42:38;;;;;;;;;;;24.50;70.20;;;;;;5073155;28;20015;-38
2023/07/18 05:45:05;;;;;;;;;;;24.50;70.20;;;;;;5068173;28;19924;-39
2023/07/18 05:47:31;;;;;;;;;;;24.50;70.10;;;;;;5070186;28;20003;-38
2023/07/18 05:49:57;;;;;;;;;;;24.50;70.00;;;;;;5065448;28;19962;-38
2023/07/18 05:52:23;;;;;;;;;;;24.50;70.10;;;;;;5067226;28;19915;-38
2023/07/18 05:54:49;;;;;;;;;;;24.50;70.00;;;;;;5069234;28;20368;-38
2023/07/18 05:57:15;;;;;;;;;;;24.50;70.00;;;;;;5068810;28;20080;-38
2023/07/18 05:59:41;;;;;;;;;;;24.50;69.90;;;;;;5068187;28;19912;-37
2023/07/18 06:02:07;;;;;;;;;;;24.50;69.90;;;;;;5066257;28;19913;-38
2023/07/18 06:04:35;;;;;;;;;;;24.50;70.00;;;;;;5067234;28;19920;-38
2023/07/18 06:07:01;;;;;;;;;;;24.50;69.90;;;;;;5072904;28;19962;-38
2023/07/18 06:09:27;;;;;;;;;;;24.50;70.00;;;;;;5082138;28;20421;-39
2023/07/18 06:11:53;;;;;;;;;;;24.50;70.10;;;;;;5082588;28;19913;-38
2023/07/18 06:14:19;;;;;;;;;;;24.50;70.30;;;;;;5081847;28;20345;-38
2023/07/18 06:16:45;;;;;;;;;;;24.40;70.20;;;;;;5082725;28;19984;-37
2023/07/18 06:19:12;;;;;;;;;;;24.40;70.20;;;;;;5082626;28;20335;-38
2023/07/18 06:21:38;;;;;;;;;;;24.40;70.10;;;;;;5082782;28;19912;-38
2023/07/18 06:24:04;;;;;;;;;;;24.40;70.30;;;;;;5082508;28;19920;-38
2023/07/18 06:26:30;;;;;;;;;;;24.40;70.30;;;;;;5082716;28;19912;-37
2023/07/18 06:28:56;;;;;;;;;;;24.40;70.40;;;;;;5076362;28;19967;-37
2023/07/18 06:31:23;;;;;;;;;;;24.40;70.30;;;;;;5081838;28;19916;-38
2023/07/18 06:33:48;;;;;;;;;;;24.40;70.20;;;;;;5082709;28;19979;-38
2023/07/18 06:36:15;;;;;;;;;;;24.30;70.10;;;;;;5081703;28;19947;-37
2023/07/18 06:38:41;;;;;;;;;;;24.30;70.10;;;;;;5082034;28;20388;-37
2023/07/18 06:41:07;;;;;;;;;;;24.30;70.10;;;;;;5082306;28;19916;-38
2023/07/18 06:43:32;;;;;;;;;;;24.30;70.20;;;;;;5082551;28;20383;-38
2023/07/18 06:45:58;;;;;;;;;;;24.30;70.10;;;;;;5082213;28;19926;-37
2023/07/18 06:48:24;;;;;;;;;;;24.30;70.10;;;;;;5082451;28;19915;-37
2023/07/18 06:50:52;;;;;;;;;;;24.30;70.20;;;;;;5082361;28;19912;-37
2023/07/18 06:53:19;;;;;;;;;;;24.30;70.10;;;;;;5061551;28;19908;-37
2023/07/18 06:55:46;;;;;;;;;;;24.30;70.20;;;;;;5082343;28;19965;-37
2023/07/18 06:58:12;;;;;;;;;;;24.30;70.30;;;;;;5075182;28;19935;-38
2023/07/18 07:00:38;;;;;;;;;;;24.30;70.40;;;;;;5082469;28;19916;-38
2023/07/18 07:03:04;;;;;;;;;;;24.30;70.50;;;;;;5082331;28;19959;-38
2023/07/18 07:05:30;;;;;;;;;;;24.20;71.10;;;;;;5082195;28;19912;-38
2023/07/18 07:07:56;;;;;;;;;;;24.20;70.50;;;;;;5080396;28;19920;-38
2023/07/18 07:10:22;;;;;;;;;;;24.20;70.50;;;;;;5081841;28;19919;-38
2023/07/18 07:12:47;;;;;;;;;;;24.20;70.30;;;;;;5082070;28;19966;-38
2023/07/18 07:15:13;;;;;;;;;;;24.20;70.40;;;;;;5082300;28;19966;-38
2023/07/18 07:17:39;;;;;;;;;;;24.20;70.40;;;;;;5079341;28;19904;-37
2023/07/18 07:20:06;;;;;;;;;;;24.20;70.40;;;;;;5081645;28;19912;-38
2023/07/18 07:22:32;;;;;;;;;;;24.20;70.40;;;;;;5081050;28;19916;-38
2023/07/18 07:24:58;;;;;;;;;;;24.20;70.40;;;;;;5081146;28;19916;-38
2023/07/18 07:27:24;;;;;;;;;;;24.10;70.30;;;;;;5082242;28;19995;-38
2023/07/18 07:29:50;;;;;;;;;;;24.10;70.30;;;;;;5080818;28;19919;-38
2023/07/18 07:32:15;;;;;;;;;;;24.10;70.30;;;;;;5080418;28;19913;-38
2023/07/18 07:34:42;;;;;;;;;;;24.10;70.40;;;;;;5081868;28;19915;-37
2023/07/18 07:37:08;;;;;;;;;;;24.10;70.30;;;;;;5078063;28;19908;-37
2023/07/18 07:39:35;;;;;;;;;;;24.10;70.40;;;;;;5062842;28;19920;-38
2023/07/18 07:42:03;;;;;;;;;;;24.10;70.50;;;;;;5068206;28;20432;-38
2023/07/18 07:44:29;;;;;;;;;;;24.10;70.60;;;;;;5069000;28;19923;-37
2023/07/18 07:46:56;;;;;;;;;;;24.10;70.50;;;;;;5070371;28;19912;-38
2023/07/18 07:49:22;;;;;;;;;;;24.10;70.70;;;;;;5074933;28;19916;-37
2023/07/18 07:51:49;;;;;;;;;;;24.10;70.70;;;;;;5070020;28;19946;-37
2023/07/18 07:54:15;;;;;;;;;;;24.10;70.60;;;;;;5071403;28;19918;-38
2023/07/18 07:56:41;;;;;;;;;;;24.00;70.50;;;;;;5069661;28;19951;-37
2023/07/18 07:59:07;;;;;;;;;;;24.00;70.60;;;;;;5071168;28;19912;-38
2023/07/18 08:01:32;;;;;;;;;;;24.00;70.50;;;;;;5069886;28;19916;-38
2023/07/18 08:03:58;;;;;;;;;;;24.00;70.60;;;;;;5069786;28;19959;-38
2023/07/18 08:06:24;;;;;;;;;;;24.00;70.70;;;;;;5072072;28;19917;-38
2023/07/18 08:08:50;;;;;;;;;;;24.00;70.60;;;;;;5084881;28;19925;-38
2023/07/18 08:11:16;;;;;;;;;;;24.00;70.60;;;;;;5084487;28;20388;-37
2023/07/18 08:13:42;;;;;;;;;;;24.00;70.50;;;;;;5083711;28;19955;-38
2023/07/18 08:16:08;;;;;;;;;;;24.00;70.60;;;;;;5085131;28;19919;-38
2023/07/18 08:18:34;;;;;;;;;;;24.00;70.70;;;;;;5085332;28;19923;-37
2023/07/18 08:21:00;;;;;;;;;;;24.00;70.80;;;;;;5084730;28;19913;-37
2023/07/18 08:23:25;;;;;;;;;;;24.00;70.60;;;;;;5085374;28;19926;-37
2023/07/18 08:25:52;;;;;;;;;;;24.00;70.70;;;;;;5084744;28;19961;-37
2023/07/18 08:28:18;;;;;;;;;;;23.90;70.70;;;;;;5084692;28;19959;-37
2023/07/18 08:30:43;;;;;;;;;;;23.90;70.70;;;;;;5083555;28;19908;-37
2023/07/18 08:33:09;;;;;;;;;;;23.90;70.80;;;;;;5085101;28;19912;-38
2023/07/18 08:35:36;;;;;;;;;;;23.90;70.70;;;;;;5084688;28;19912;-37
2023/07/18 08:38:02;;;;;;;;;;;23.90;70.80;;;;;;5084732;28;19967;-38
2023/07/18 08:40:29;;;;;;;;;;;23.90;70.80;;;;;;5084582;28;19920;-37
2023/07/18 08:42:55;;;;;;;;;;;23.90;70.80;;;;;;5084431;28;19921;-37
2023/07/18 08:45:22;;;;;;;;;;;23.90;70.80;;;;;;5084377;28;19908;-38
2023/07/18 08:47:48;;;;;;;;;;;23.90;70.70;;;;;;5084657;28;19912;-37
2023/07/18 08:50:14;;;;;;;;;;;23.80;70.70;;;;;;5066620;28;19908;-38
2023/07/18 08:52:40;;;;;;;;;;;23.80;70.70;;;;;;5084109;28;19913;-37
2023/07/18 08:55:07;;;;;;;;;;;23.80;70.70;;;;;;5083067;28;19919;-37
2023/07/18 08:57:33;;;;;;;;;;;23.80;70.70;;;;;;5084572;28;19912;-38
2023/07/18 08:59:59;;;;;;;;;;;23.80;70.80;;;;;;5083492;28;19981;-38
2023/07/18 09:02:25;;;;;;;;;;;23.80;70.80;;;;;;5084731;28;19912;-38
2023/07/18 09:04:51;;;;;;;;;;;23.80;70.90;;;;;;5084445;28;19920;-37
2023/07/18 09:07:17;;;;;;;;;;;23.80;70.90;;;;;;5073922;28;20578;-38
2023/07/18 09:09:46;;;;;;;;;;;23.80;70.80;;;;;;5070959;28;19916;-37
2023/07/18 09:12:12;;;;;;;;;;;23.80;70.90;;;;;;5067517;28;19936;-37
2023/07/18 09:14:38;;;;;;;;;;;23.80;70.90;;;;;;5051414;28;20356;-37
2023/07/18 09:17:04;;;;;;;;;;;23.80;70.90;;;;;;5069785;28;20034;-38
2023/07/18 09:19:39;;;;;;;;;;;23.80;70.90;;;;;;5067459;28;19912;-38
2023/07/18 09:22:06;;;;;;;;;;;23.70;70.90;;;;;;5066288;28;19912;-38
2023/07/18 09:24:32;;;;;;;;;;;23.70;71.00;;;;;;5070164;28;19925;-37
2023/07/18 09:26:58;;;;;;;;;;;23.70;71.10;;;;;;5070712;28;19919;-37
2023/07/18 09:29:27;;;;;;;;;;;23.70;71.00;;;;;;5072000;28;20698;-38
2023/07/18 09:31:53;;;;;;;;;;;23.70;71.00;;;;;;5066097;28;19936;-38
2023/07/18 09:34:19;;;;;;;;;;;23.70;71.00;;;;;;5070636;28;19912;-37
2023/07/18 09:37:05;;;;;;;;;;;23.70;71.10;;;;;;5074753;28;19930;-38
2023/07/18 09:39:31;;;;;;;;;;;23.70;71.00;;;;;;5079305;28;19920;-37
2023/07/18 09:41:57;;;;;;;;;;;23.70;71.00;;;;;;5082975;28;19912;-38
2023/07/18 09:44:26;;;;;;;;;;;23.70;71.10;;;;;;5083552;28;19924;-38
2023/07/18 09:46:52;;;;;;;;;;;23.70;71.10;;;;;;5083291;28;19916;-37
2023/07/18 09:49:18;;;;;;;;;;;23.70;71.10;;;;;;5065891;28;19919;-37
2023/07/18 09:51:48;;;;;;;;;;;23.70;71.10;;;;;;5082804;28;19908;-38
2023/07/18 09:54:14;;;;;;;;;;;23.70;71.10;;;;;;5058688;28;19940;-38
2023/07/18 09:56:40;;;;;;;;;;;23.60;71.10;;;;;;5065332;28;19923;-38
2023/07/18 09:59:08;;;;;;;;;;;23.60;71.10;;;;;;5078424;28;20375;-38
2023/07/18 10:01:34;;;;;;;;;;;23.60;71.20;;;;;;5065138;28;19919;-37
2023/07/18 10:04:00;;;;;;;;;;;23.60;71.30;;;;;;5063466;28;19920;-38
2023/07/18 10:06:26;;;;;;;;;;;23.60;71.20;;;;;;5082846;28;19971;-37
2023/07/18 10:08:52;;;;;;;;;;;23.60;71.20;;;;;;5061535;28;19921;-38
2023/07/18 10:11:18;;;;;;;;;;;23.60;71.20;;;;;;5062268;28;19935;-37
2023/07/18 10:13:56;;;;;;;;;;;23.60;71.20;;;;;;5062916;28;19912;-38
2023/07/18 10:16:22;;;;;;;;;;;23.60;71.30;;;;;;5057391;28;19916;-37
2023/07/18 10:18:49;;;;;;;;;;;23.60;71.20;;;;;;5062016;28;19908;-37
2023/07/18 10:21:27;;;;;;;;;;;23.60;71.30;;;;;;5057873;28;19943;-38
2023/07/18 10:23:53;;;;;;;;;;;23.60;71.30;;;;;;5061177;28;20003;-37
2023/07/18 10:26:28;;;;;;;;;;;23.50;71.20;;;;;;5061434;28;19913;-38
2023/07/18 10:28:55;;;;;;;;;;;23.50;71.30;;;;;;5062514;28;19908;-37
2023/07/18 10:31:48;;;;;;;;;;;23.50;71.30;;;;;;5061233;28;20212;-38
2023/07/18 10:34:15;;;;;;;;;;;23.50;71.20;;;;;;5054658;28;20027;-38
2023/07/18 10:36:54;;;;;;;;;;;23.50;71.30;;;;;;5061620;28;19913;-38
2023/07/18 10:39:20;;;;;;;;;;;23.50;71.30;;;;;;5056487;28;19913;-38
2023/07/18 10:41:46;;;;;;;;;;;23.50;71.40;;;;;;5061182;28;19912;-38
2023/07/18 10:44:12;;;;;;;;;;;23.50;71.40;;;;;;5062671;28;19978;-38
2023/07/18 10:46:38;;;;;;;;;;;23.50;71.40;;;;;;5062038;28;19947;-38
2023/07/18 10:49:05;;;;;;;;;;;23.50;71.40;;;;;;5061915;28;19920;-38
2023/07/18 10:51:31;;;;;;;;;;;23.50;71.50;;;;;;5062777;28;19912;-38
2023/07/18 10:53:58;;;;;;;;;;;23.40;71.40;;;;;;5062076;28;19909;-38
2023/07/18 10:56:24;;;;;;;;;;;23.40;71.50;;;;;;5062587;28;19931;-38
2023/07/18 10:58:51;;;;;;;;;;;23.40;71.50;;;;;;5061148;28;19913;-37
2023/07/18 11:01:17;;;;;;;;;;;23.40;71.50;;;;;;5062481;28;20428;-38
2023/07/18 11:03:45;;;;;;;;;;;23.40;71.50;;;;;;5061095;28;19927;-37
2023/07/18 11:06:11;;;;;;;;;;;23.40;71.50;;;;;;5062202;28;20381;-38
2023/07/18 11:08:37;;;;;;;;;;;23.40;71.40;;;;;;5063932;28;19927;-37
2023/07/18 11:11:04;;;;;;;;;;;23.40;72.20;;;;;;5071295;28;19961;-37
2023/07/18 11:13:30;;;;;;;;;;;23.40;71.50;;;;;;5069113;28;19909;-38
2023/07/18 11:16:05;;;;;;;;;;;23.40;71.60;;;;;;5070222;28;19919;-38
2023/07/18 11:18:35;;;;;;;;;;;23.40;71.50;;;;;;5075940;28;19912;-37
2023/07/18 11:21:04;;;;;;;;;;;23.30;71.50;;;;;;5072658;28;19912;-38
2023/07/18 11:23:30;;;;;;;;;;;23.30;71.50;;;;;;5070930;28;20764;-37
2023/07/18 11:25:56;;;;;;;;;;;23.30;71.50;;;;;;5068355;28;19928;-38
2023/07/18 11:28:21;;;;;;;;;;;23.30;71.60;;;;;;5071184;28;19916;-38
2023/07/18 11:30:48;;;;;;;;;;;23.30;71.60;;;;;;5069003;28;19918;-37
2023/07/18 11:33:14;;;;;;;;;;;23.30;71.60;;;;;;5067983;28;19918;-37
2023/07/18 11:35:46;;;;;;;;;;;23.30;71.70;;;;;;5071561;28;19908;-38
2023/07/18 11:38:12;;;;;;;;;;;23.30;71.70;;;;;;5080625;28;19982;-38
2023/07/18 11:40:38;;;;;;;;;;;23.30;71.80;;;;;;5067411;28;19952;-38
2023/07/18 11:43:04;;;;;;;;;;;23.30;71.70;;;;;;5086018;28;19927;-38
2023/07/18 11:45:30;;;;;;;;;;;23.30;71.70;;;;;;5086078;28;19912;-38
2023/07/18 11:47:57;;;;;;;;;;;23.30;71.80;;;;;;5067564;28;19915;-38
2023/07/18 11:50:25;;;;;;;;;;;23.30;71.80;;;;;;5085744;28;19916;-38
2023/07/18 11:52:51;;;;;;;;;;;23.20;71.70;;;;;;5085571;28;19908;-37
2023/07/18 11:55:19;;;;;;;;;;;23.30;71.70;;;;;;5085531;28;19916;-37
2023/07/18 11:57:45;;;;;;;;;;;23.20;71.90;;;;;;5085350;28;20430;-38
2023/07/18 12:00:11;;;;;;;;;;;23.20;71.80;;;;;;5085356;28;19979;-38
2023/07/18 12:02:37;;;;;;;;;;;23.20;71.70;;;;;;5085529;28;19916;-38
2023/07/18 12:05:04;;;;;;;;;;;23.20;71.90;;;;;;5083066;28;19916;-38
2023/07/18 12:07:29;;;;;;;;;;;23.20;71.80;;;;;;5082475;28;19908;-37
2023/07/18 12:09:55;;;;;;;;;;;23.20;71.90;;;;;;5084798;28;19957;-38
2023/07/18 12:12:23;;;;;;;;;;;23.20;72.00;;;;;;5085148;28;19908;-38
2023/07/18 12:14:52;;;;;;;;;;;23.20;71.90;;;;;;5078598;28;19920;-37
2023/07/18 12:17:20;;;;;;;;;;;23.20;72.00;;;;;;5085353;28;19924;-38
2023/07/18 12:19:46;;;;;;;;;;;23.20;72.00;;;;;;5082882;28;19920;-38
2023/07/18 12:22:12;;;;;;;;;;;23.20;72.00;;;;;;5077697;28;19947;-38
2023/07/18 12:24:38;;;;;;;;;;;23.20;72.10;;;;;;5085280;28;19955;-38
2023/07/18 12:27:06;;;;;;;;;;;23.20;72.00;;;;;;5084717;28;19916;-38
2023/07/18 12:29:32;;;;;;;;;;;23.20;72.00;;;;;;5084829;28;19916;-37
2023/07/18 12:31:58;;;;;;;;;;;23.20;72.10;;;;;;5084605;28;19919;-38
2023/07/18 12:34:24;;;;;;;;;;;23.20;72.10;;;;;;5085227;28;19915;-38
2023/07/18 12:36:50;;;;;;;;;;;23.20;72.10;;;;;;5084716;28;19912;-37
2023/07/18 12:39:36;;;;;;;;;;;23.20;72.10;;;;;;5083010;28;20069;-38
2023/07/18 12:42:02;;;;;;;;;;;23.20;72.20;;;;;;5041554;28;19920;-38
2023/07/18 12:44:40;;;;;;;;;;;23.20;72.10;;;;;;5042256;28;19921;-38
2023/07/18 12:47:10;;;;;;;;;;;23.20;72.30;;;;;;5041282;28;19913;-38
2023/07/18 12:49:36;;;;;;;;;;;23.20;72.30;;;;;;5026004;28;19913;-38
2023/07/18 12:52:03;;;;;;;;;;;23.10;72.30;;;;;;5041435;28;20129;-38
2023/07/18 12:54:29;;;;;;;;;;;23.20;72.60;;;;;;5041944;28;19913;-38
2023/07/18 12:56:54;;;;;;;;;;;23.20;72.60;;;;;;5041856;28;20651;-39
2023/07/18 12:59:20;;;;;;;;;;;23.20;72.80;;;;;;5041191;28;20050;-38
2023/07/18 13:01:46;;;;;;;;;;;23.20;72.70;;;;;;5041543;28;19913;-38
2023/07/18 13:04:12;;;;;;;;;;;23.20;72.70;;;;;;5041546;28;19932;-38
2023/07/18 13:06:38;;;;;;;;;;;23.20;72.60;;;;;;5041552;28;20338;-38
2023/07/18 13:09:04;;;;;;;;;;;23.10;72.50;;;;;;5039859;28;19922;-38
2023/07/18 13:11:30;;;;;;;;;;;23.20;72.60;;;;;;5041616;28;20466;-39
2023/07/18 13:13:56;;;;;;;;;;;23.20;72.60;;;;;;5024473;28;19912;-38
2023/07/18 13:16:22;;;;;;;;;;;23.20;72.60;;;;;;5039101;28;19928;-39
2023/07/18 13:18:48;;;;;;;;;;;23.20;72.60;;;;;;5056542;28;20603;-38
2023/07/18 13:21:14;;;;;;;;;;;23.20;72.60;;;;;;5081891;28;19935;-38
2023/07/18 13:23:40;;;;;;;;;;;23.20;72.60;;;;;;5083309;28;19916;-37
2023/07/18 13:26:06;;;;;;;;;;;23.20;72.80;;;;;;5082657;28;19934;-38
2023/07/18 13:28:32;;;;;;;;;;;23.20;72.80;;;;;;5084118;28;19922;-38
2023/07/18 13:30:58;;;;;;;;;;;23.20;73.00;;;;;;5083505;28;19962;-38
2023/07/18 13:33:24;;;;;;;;;;;23.20;73.00;;;;;;5083703;28;19908;-37
2023/07/18 13:35:50;;;;;;;;;;;23.20;73.00;;;;;;5083039;28;19920;-38
2023/07/18 13:38:16;;;;;;;;;;;23.20;72.90;;;;;;5083712;28;20745;-38
2023/07/18 13:40:42;;;;;;;;;;;23.20;73.00;;;;;;5083089;28;19916;-38
2023/07/18 13:43:09;;;;;;;;;;;23.20;73.10;;;;;;5065080;28;19958;-38
2023/07/18 13:45:35;;;;;;;;;;;23.20;73.10;;;;;;5079729;28;19962;-38
2023/07/18 13:48:03;;;;;;;;;;;23.30;73.00;;;;;;5083106;28;19913;-38
2023/07/18 13:50:29;;;;;;;;;;;23.30;72.90;;;;;;5083605;28;19983;-38
2023/07/18 13:52:55;;;;;;;;;;;23.30;72.90;;;;;;5083133;28;19919;-38
2023/07/18 13:55:20;;;;;;;;;;;23.30;73.00;;;;;;5083578;28;19991;-38
2023/07/18 13:57:46;;;;;;;;;;;23.30;72.90;;;;;;5083282;28;19919;-37
2023/07/18 14:00:12;;;;;;;;;;;23.30;73.10;;;;;;5076130;28;19923;-38
2023/07/18 14:02:38;;;;;;;;;;;23.30;73.20;;;;;;5081763;28;19915;-38
2023/07/18 14:05:05;;;;;;;;;;;23.30;73.20;;;;;;5083199;28;19912;-37
2023/07/18 14:07:32;;;;;;;;;;;23.30;73.20;;;;;;5082953;28;19982;-38
2023/07/18 14:09:58;;;;;;;;;;;23.40;73.20;;;;;;5077462;28;19947;-38
2023/07/18 14:12:23;;;;;;;;;;;23.40;73.30;;;;;;5083097;28;19915;-38